EW3532 Weather Reports


time (UTC)temp
C
wind
direction
speed
KPH
gust
KPH
rain 1hr
cm
rain 24hr
cm
rain mn
cm
humidity
%
barometer
mb
20200606182535 20 198 1.6 4.8 0.00 0.05 0.03 36 1007.0
20200606181526 21 152 3.2 8.0 0.00 0.05 0.03 34 1007.0
20200606180519 22 0.0 1.6 0.00 0.05 0.03 31 1007.0
20200606175606 23 181 3.2 8.0 0.00 0.05 0.03 30 1006.9
20200606174551 24 287 1.6 6.4 0.00 0.05 0.03 28 1006.8
20200606173537 25 196 1.6 3.2 0.00 0.05 0.03 25 1006.7
20200606172526 26 145 1.6 4.8 0.00 0.05 0.03 23 1006.6
20200606170554 28 1 3.2 6.4 0.00 0.05 0.03 17 1006.6
20200606164531 29 338 1.6 6.4 0.00 0.05 0.03 15 1006.4
20200606163518 29 223 3.2 6.4 0.00 0.05 0.03 15 1006.4
20200606162607 28 137 1.6 6.4 0.00 0.05 0.03 15 1006.5
20200606161550 29 59 1.6 4.8 0.00 0.05 0.03 14 1006.4
20200606160538 28 180 1.6 3.2 0.00 0.05 0.03 16 1006.5
20200606155527 28 142 1.6 8.0 0.00 0.05 0.03 15 1006.4
20200606154614 28 112 3.2 11.3 0.00 0.05 0.03 15 1006.4
20200606151530 30 256 1.6 3.2 0.00 0.05 0.03 13 1006.3
20200606145606 30 141 1.6 6.4 0.00 0.05 0.03 13 1006.3
20200606144551 30 143 3.2 6.4 0.00 0.05 0.03 13 1006.4
20200606140554 30 225 1.6 3.2 0.00 0.05 0.03 13 1006.5
20200606135543 29 327 3.2 4.8 0.00 0.05 0.03 14 1006.5
20200606134529 28 308 4.8 12.9 0.00 0.05 0.03 14 1006.4
20200606133517 28 341 3.2 8.0 0.00 0.05 0.03 15 1006.4
20200606131550 29 309 3.2 9.7 0.00 0.05 0.03 14 1006.7
20200606130538 28 152 1.6 4.8 0.00 0.05 0.03 16 1006.6
20200606124538 28 264 4.8 12.9 0.00 0.05 0.03 14 1006.8
20200606122539 28 300 6.4 17.7 0.00 0.05 0.03 15 1006.7
20200606121527 28 255 3.2 9.7 0.00 0.05 0.03 15 1006.7
20200606115556 27 345 1.6 4.8 0.00 0.05 0.03 13 1006.8
20200606114542 27 219 3.2 9.7 0.00 0.05 0.03 12 1006.9
20200606113530 26 250 3.2 8.0 0.00 0.05 0.03 14 1006.8
20200606111606 27 290 4.8 9.7 0.00 0.05 0.03 16 1006.8
20200606110551 27 164 3.2 9.7 0.00 0.05 0.03 16 1006.8
20200606103615 27 221 3.2 12.9 0.00 0.05 0.03 16 1006.8
20200606102605 26 337 4.8 8.0 0.00 0.05 0.03 17 1006.7
20200606101546 27 200 3.2 6.4 0.00 0.05 0.03 18 1006.7
20200606100532 26 0.0 3.2 0.00 0.05 0.03 18 1006.7
20200606095518 26 24 3.2 6.4 0.00 0.05 0.03 17 1006.7
20200606093550 26 274 3.2 9.7 0.00 0.05 0.03 18 1006.7
20200606092538 26 215 1.6 6.4 0.00 0.05 0.03 17 1006.7
20200606083530 25 309 1.6 6.4 0.00 0.05 0.03 21 1006.3
20200606081606 25 228 3.2 6.4 0.00 0.05 0.03 23 1006.4
20200606080551 25 225 3.2 3.2 0.00 0.05 0.03 21 1006.3
20200606075540 24 344 1.6 4.8 0.00 0.05 0.03 18 1006.4
20200606074526 24 270 1.6 4.8 0.00 0.05 0.03 22 1006.4
20200606073615 23 286 3.2 12.9 0.00 0.05 0.03 23 1006.3
20200606072554 22 238 6.4 8.0 0.00 0.05 0.03 20 1006.5
20200606071542 22 309 4.8 6.4 0.00 0.05 0.03 19 1006.3
20200606070531 22 333 6.4 9.7 0.00 0.05 0.03 24 1006.3
20200606065519 22 312 3.2 6.4 0.00 0.05 0.03 22 1006.2
20200606064605 23 310 4.8 6.4 0.00 0.05 0.03 25 1006.1
20200606063550 22 328 4.8 12.9 0.00 0.05 0.03 22 1006.0
20200606062539 22 327 4.8 12.9 0.00 0.05 0.03 24 1006.1
20200606061528 22 285 3.2 6.4 0.00 0.05 0.03 24 1006.0
20200606054542 21 330 4.8 9.7 0.00 0.05 0.03 32 1005.6
20200606053530 22 307 8.0 12.9 0.00 0.05 0.03 31 1005.4
20200606052519 22 308 1.6 3.2 0.00 0.05 0.03 39 1005.2
20200606051606 21 156 1.6 3.2 0.00 0.05 0.03 45 1004.8
20200606050551 21 146 0.0 3.2 0.00 0.05 0.03 49 1004.6
20200606045539 19 159 1.6 4.8 0.00 0.05 0.03 56 1004.4
20200606044526 18 135 0.0 3.2 0.00 0.05 0.03 60 1004.3
20200606043615 18 189 1.6 3.2 0.00 0.05 0.03 65 1004.0
20200606042554 16 0.0 0.0 0.00 0.05 0.03 68 1004.0
20200606040529 14 0.0 1.6 0.03 0.05 0.03 67 1003.9
20200606035518 14 0.0 1.6 0.03 0.05 0.03 68 1003.7
20200606033550 13 180 0.0 3.2 0.03 0.05 0.03 68 1003.5
20200606032538 13 0.0 0.0 0.03 0.05 0.03 68 1003.5
20200606031527 13 0.0 1.6 0.03 0.05 0.03 68 1003.3
20200606030615 13 45 1.6 3.2 0.00 0.03 0.00 67 1003.1
20200606024541 13 0.0 1.6 0.00 0.03 0.00 67 1002.9
20200606022518 13 0.0 1.6 0.00 0.03 0.00 66 1002.6
20200606021606 13 0.0 1.6 0.00 0.03 0.00 66 1002.5
20200606020551 13 45 3.2 3.2 0.00 0.03 0.00 66 1002.4
20200606013615 13 0.0 3.2 0.00 0.03 0.00 65 1002.2
20200606012554 13 180 0.0 3.2 0.00 0.03 0.00 65 1002.3
20200606011542 13 270 0.0 3.2 0.00 0.03 0.00 65 1002.4
20200606005518 13 293 0.0 3.2 0.00 0.03 0.00 64 1002.2
20200606004605 13 315 0.0 3.2 0.00 0.03 0.00 63 1002.2
20200606002538 13 173 0.0 3.2 0.00 0.03 0.00 62 1002.1
20200606001550 13 0.0 0.0 0.00 0.03 0.00 62 1002.2
20200606000538 14 0.0 0.0 0.00 0.03 0.00 62 1002.0
20200605235550 14 0.0 1.6 0.00 0.03 0.00 62 1001.9
20200605234538 14 276 1.6 6.4 0.00 0.03 0.00 63 1001.8
20200605233529 14 325 3.2 9.7 0.00 0.03 0.00 63 1001.7
20200605232614 14 270 1.6 3.2 0.00 0.03 0.00 63 1001.5
20200605230541 15 328 1.6 3.2 0.00 0.03 0.00 64 1001.5
20200605225530 15 349 0.0 4.8 0.00 0.03 0.00 64 1001.4
20200605224519 15 27 0.0 3.2 0.00 0.03 0.00 64 1001.3
20200605223607 15 0 0.0 3.2 0.00 0.03 0.00 63 1001.2
20200605220527 15 0.0 0.0 0.00 0.03 0.00 64 1000.8
20200605213542 15 0.0 1.6 0.03 0.03 0.03 62 1000.3
20200605211518 15 0.0 1.6 0.03 0.03 0.03 60 1000.4
20200605204538 15 0.0 0.0 0.00 0.00 0.00 56 1000.0
20200605203527 15 169 0.0 3.2 0.00 0.00 0.00 55 999.8
20200605202614 15 158 0.0 3.2 0.00 0.00 0.00 55 1000.0
20200605200541 16 0.0 1.6 0.00 0.00 0.00 50 1000.0
20200605194519 16 180 0.0 3.2 0.00 0.00 0.00 46 999.8
20200605191540 17 149 1.6 4.8 0.00 0.00 0.00 44 999.6
20200605185615 16 144 1.6 3.2 0.00 0.00 0.00 46 999.6
20200605184554 16 124 1.6 6.4 0.00 0.00 0.00 45 999.4